createdAt,value
2022-11-06T00:00:40.035Z,9.18
2022-11-06T00:03:07.714Z,11.57
2022-11-06T00:05:52.780Z,11.10
2022-11-06T00:08:31.532Z,12.52
2022-11-06T00:10:58.907Z,15.75
2022-11-06T00:13:26.415Z,15.77
2022-11-06T00:15:53.849Z,17.52
2022-11-06T00:18:21.344Z,11.07
2022-11-06T00:20:48.709Z,11.55
2022-11-06T00:23:16.140Z,11.40
2022-11-06T00:25:44.807Z,14.15
2022-11-06T00:28:12.410Z,15.32
2022-11-06T00:30:40.316Z,10.98
2022-11-06T00:33:08.044Z,11.57
2022-11-06T00:35:35.401Z,10.32
2022-11-06T00:38:02.783Z,11.68
2022-11-06T00:40:30.270Z,12.00
2022-11-06T00:42:59.349Z,8.60
2022-11-06T00:45:26.876Z,8.50
2022-11-06T00:47:54.263Z,12.25
2022-11-06T00:50:22.845Z,8.48
2022-11-06T00:52:50.248Z,13.00
2022-11-06T00:55:17.596Z,10.77
2022-11-06T00:57:44.954Z,13.70
2022-11-06T01:00:14.654Z,17.05
2022-11-06T01:02:42.249Z,13.10
2022-11-06T01:05:09.850Z,12.57
2022-11-06T01:07:37.256Z,11.25
2022-11-06T01:10:05.317Z,12.77
2022-11-06T01:12:32.680Z,10.60
2022-11-06T01:15:00.034Z,11.20
2022-11-06T01:17:29.169Z,12.80
2022-11-06T01:19:56.581Z,10.10
2022-11-06T01:22:23.963Z,12.32
2022-11-06T01:24:51.385Z,8.52
2022-11-06T01:27:27.354Z,10.25
2022-11-06T01:29:55.142Z,9.32
2022-11-06T01:32:22.488Z,8.07
2022-11-06T01:34:51.445Z,9.95
2022-11-06T01:37:18.787Z,9.68
2022-11-06T01:39:46.137Z,16.42
2022-11-06T01:42:14.508Z,9.07
2022-11-06T01:45:00.319Z,8.68
2022-11-06T01:47:28.450Z,11.50
2022-11-06T01:49:58.259Z,13.70
2022-11-06T01:52:26.597Z,12.88
2022-11-06T01:54:55.922Z,10.30
2022-11-06T01:57:23.282Z,8.90
2022-11-06T01:59:52.298Z,12.63
2022-11-06T02:02:19.883Z,10.35
2022-11-06T02:04:49.181Z,12.43
2022-11-06T02:07:18.909Z,11.00
2022-11-06T02:09:46.311Z,13.52
2022-11-06T02:12:15.986Z,14.75
2022-11-06T02:14:46.475Z,13.20
2022-11-06T02:17:16.549Z,13.80
2022-11-06T02:19:52.411Z,13.90
2022-11-06T02:22:26.941Z,15.57
2022-11-06T02:25:00.018Z,14.38
2022-11-06T02:27:29.599Z,12.23
2022-11-06T02:30:00.413Z,11.43
2022-11-06T02:32:31.014Z,13.10
2022-11-06T02:34:59.480Z,11.85
2022-11-06T02:37:28.609Z,12.93
2022-11-06T02:39:58.119Z,11.68
2022-11-06T02:42:27.253Z,11.00
2022-11-06T02:44:57.236Z,11.77
2022-11-06T02:47:26.521Z,14.25
2022-11-06T02:49:54.754Z,11.55
2022-11-06T02:52:24.165Z,11.95
2022-11-06T02:54:53.225Z,11.75
2022-11-06T02:57:21.276Z,13.52
2022-11-06T02:59:50.717Z,13.25
2022-11-06T03:02:22.105Z,10.82
2022-11-06T03:07:20.815Z,11.88
2022-11-06T03:09:49.012Z,14.60
2022-11-06T03:12:20.195Z,10.93
2022-11-06T03:14:49.772Z,13.13
2022-11-06T03:17:19.564Z,14.02
2022-11-06T03:19:50.605Z,13.27
2022-11-06T03:22:25.875Z,13.57
2022-11-06T03:24:56.842Z,10.05
2022-11-06T03:27:27.008Z,14.20
2022-11-06T03:29:59.106Z,13.63
2022-11-06T03:32:28.425Z,11.77
2022-11-06T03:35:00.529Z,11.25
2022-11-06T03:37:29.324Z,14.60
2022-11-06T03:39:58.646Z,11.02
2022-11-06T03:42:27.729Z,15.02
2022-11-06T03:44:58.070Z,10.65
2022-11-06T03:47:27.044Z,15.23
2022-11-06T03:49:57.105Z,12.60
2022-11-06T03:52:29.460Z,11.70
2022-11-06T03:54:58.581Z,13.43
2022-11-06T03:57:30.038Z,12.63
2022-11-06T03:59:59.985Z,11.30
2022-11-06T04:02:29.223Z,11.05
2022-11-06T04:04:58.423Z,11.70
2022-11-06T04:07:29.549Z,9.45
2022-11-06T04:10:17.839Z,13.82
2022-11-06T04:13:00.034Z,11.20
2022-11-06T04:15:28.356Z,17.33
2022-11-06T04:17:55.747Z,11.98
2022-11-06T04:20:42.544Z,11.48
2022-11-06T04:23:15.093Z,14.57
2022-11-06T04:26:09.194Z,10.05
2022-11-06T04:28:42.066Z,14.43
2022-11-06T04:31:11.861Z,12.43
2022-11-06T04:33:44.724Z,18.00
2022-11-06T04:36:15.155Z,13.65
2022-11-06T04:38:48.285Z,17.65
2022-11-06T04:41:19.201Z,13.32
2022-11-06T04:43:48.334Z,11.90
2022-11-06T04:46:19.846Z,12.23
2022-11-06T04:48:48.057Z,13.50
2022-11-06T04:51:16.426Z,11.82
2022-11-06T04:53:45.254Z,16.70
2022-11-06T04:56:15.595Z,11.35
2022-11-06T04:58:46.171Z,12.95
2022-11-06T05:01:13.612Z,11.85
2022-11-06T05:03:41.033Z,13.85
2022-11-06T05:06:08.452Z,11.05
2022-11-06T05:08:35.812Z,12.93
2022-11-06T05:11:04.585Z,13.38
2022-11-06T05:13:31.954Z,11.23
2022-11-06T05:15:59.957Z,11.15
2022-11-06T05:18:27.976Z,15.13
2022-11-06T05:21:15.569Z,11.88
2022-11-06T05:23:42.165Z,13.70
2022-11-06T05:26:10.881Z,14.32
2022-11-06T05:28:38.253Z,14.73
2022-11-06T05:31:06.238Z,12.05
2022-11-06T05:33:33.685Z,13.18
2022-11-06T05:36:02.608Z,16.13
2022-11-06T05:38:30.041Z,14.05
2022-11-06T05:40:57.459Z,12.23
2022-11-06T05:43:26.223Z,12.25
2022-11-06T05:45:53.696Z,11.07
2022-11-06T05:48:21.109Z,14.85
2022-11-06T05:50:48.529Z,11.93
2022-11-06T05:53:16.078Z,13.77
2022-11-06T05:55:43.569Z,12.27
2022-11-06T05:58:11.204Z,15.30
2022-11-06T06:00:40.308Z,10.73
2022-11-06T06:03:07.765Z,15.35
2022-11-06T06:05:35.163Z,13.45
2022-11-06T06:08:02.512Z,14.50
2022-11-06T06:10:29.925Z,12.73
2022-11-06T06:12:57.291Z,11.68
2022-11-06T06:15:24.739Z,14.02
2022-11-06T06:17:53.493Z,16.48
2022-11-06T06:20:20.867Z,11.63
2022-11-06T06:22:53.920Z,10.52
2022-11-06T06:25:22.945Z,14.50
2022-11-06T06:27:50.685Z,11.18
2022-11-06T06:30:18.233Z,13.20
2022-11-06T06:32:45.596Z,12.95
2022-11-06T06:35:14.299Z,14.18
2022-11-06T06:37:41.669Z,13.32
2022-11-06T06:40:09.611Z,13.32
2022-11-06T06:42:36.998Z,14.90
2022-11-06T06:45:04.631Z,12.63
2022-11-06T06:47:32.026Z,12.73
2022-11-06T06:49:59.429Z,16.05
2022-11-06T06:52:28.242Z,11.93
2022-11-06T06:54:55.615Z,13.40
2022-11-06T06:57:23.010Z,14.00
2022-11-06T06:59:50.825Z,17.63
2022-11-06T07:02:18.272Z,15.90
2022-11-06T07:04:45.735Z,14.20
2022-11-06T07:07:13.333Z,19.70
2022-11-06T07:09:42.052Z,18.55
2022-11-06T07:12:09.458Z,16.20
2022-11-06T07:14:36.857Z,12.23
2022-11-06T07:17:04.220Z,14.95
2022-11-06T07:19:31.613Z,13.77
2022-11-06T07:21:58.912Z,12.85
2022-11-06T07:24:26.296Z,13.52
2022-11-06T07:26:55.070Z,14.95
2022-11-06T07:29:22.571Z,17.08
2022-11-06T07:31:50.002Z,13.73
2022-11-06T07:34:17.398Z,17.42
2022-11-06T07:36:44.792Z,13.48
2022-11-06T07:39:12.164Z,16.63
2022-11-06T07:41:39.562Z,17.05
2022-11-06T07:44:08.382Z,17.85
2022-11-06T07:46:35.751Z,19.13
2022-11-06T07:49:03.128Z,18.90
2022-11-06T07:51:30.718Z,14.45
2022-11-06T07:53:58.227Z,16.52
2022-11-06T07:56:25.611Z,15.75
2022-11-06T07:58:52.956Z,15.18
2022-11-06T08:01:21.831Z,13.02
2022-11-06T08:03:49.312Z,17.75
2022-11-06T08:06:16.733Z,20.38
2022-11-06T08:08:44.108Z,15.40
2022-11-06T08:11:12.257Z,14.57
2022-11-06T08:13:39.917Z,15.20
2022-11-06T08:16:07.728Z,16.50
2022-11-06T08:18:36.873Z,16.50
2022-11-06T08:21:04.578Z,14.82
2022-11-06T08:23:32.053Z,16.23
2022-11-06T08:26:00.510Z,15.30
2022-11-06T08:28:27.926Z,16.65
2022-11-06T08:30:55.335Z,14.40
2022-11-06T08:33:23.370Z,14.65
2022-11-06T08:35:52.088Z,17.80
2022-11-06T08:38:19.435Z,22.20
2022-11-06T08:40:52.285Z,12.30
2022-11-06T08:43:20.925Z,11.65
2022-11-06T08:45:48.283Z,14.82
2022-11-06T08:48:15.653Z,14.15
2022-11-06T08:50:43.026Z,14.43
2022-11-06T08:53:12.077Z,13.05
2022-11-06T08:55:40.301Z,12.10
2022-11-06T08:58:08.376Z,9.93
2022-11-06T09:00:36.004Z,12.23
2022-11-06T09:03:04.568Z,11.07
2022-11-06T09:05:31.950Z,14.45
2022-11-06T09:07:59.621Z,11.75
2022-11-06T09:10:28.618Z,10.57
2022-11-06T09:12:56.703Z,12.10
2022-11-06T09:15:24.062Z,12.95
2022-11-06T09:17:52.171Z,8.05
2022-11-06T09:20:20.808Z,10.63
2022-11-06T09:22:48.547Z,8.50
2022-11-06T09:25:16.298Z,9.52
2022-11-06T09:27:46.619Z,10.25
2022-11-06T09:30:15.344Z,8.73
2022-11-06T09:32:46.121Z,8.93
2022-11-06T09:35:13.437Z,9.57
2022-11-06T09:37:40.872Z,9.82
2022-11-06T09:40:09.123Z,10.38
2022-11-06T09:42:42.077Z,8.95
2022-11-06T09:45:13.893Z,8.52
2022-11-06T09:47:44.780Z,8.77
2022-11-06T09:50:15.404Z,9.95
2022-11-06T09:52:45.212Z,9.43
2022-11-06T09:55:16.246Z,8.60
2022-11-06T09:57:46.020Z,9.73
2022-11-06T10:00:16.432Z,8.65
2022-11-06T10:02:44.717Z,9.38
2022-11-06T10:05:15.456Z,8.55
2022-11-06T10:07:43.369Z,8.57
2022-11-06T10:10:15.078Z,9.68
2022-11-06T10:12:53.347Z,9.90
2022-11-06T10:15:24.758Z,8.23
2022-11-06T10:17:56.039Z,8.65
2022-11-06T10:20:27.634Z,8.32
2022-11-06T10:23:01.270Z,9.13
2022-11-06T10:25:37.102Z,7.47
2022-11-06T10:28:09.489Z,6.93
2022-11-06T10:30:41.382Z,7.18
2022-11-06T10:33:15.063Z,4.97
2022-11-06T10:35:44.842Z,8.63
2022-11-06T10:38:15.040Z,7.95
2022-11-06T10:40:44.435Z,6.35
2022-11-06T10:43:18.901Z,5.53
2022-11-06T10:45:49.666Z,6.35
2022-11-06T10:48:28.926Z,9.30
2022-11-06T10:51:03.282Z,7.68
2022-11-06T10:53:37.212Z,8.82
2022-11-06T10:56:11.146Z,5.72
2022-11-06T10:58:38.817Z,6.60
2022-11-06T11:01:09.989Z,8.43
2022-11-06T11:03:41.115Z,6.35
2022-11-06T11:08:37.524Z,8.15
2022-11-06T11:11:06.060Z,7.72
2022-11-06T11:13:33.944Z,8.70
2022-11-06T11:16:02.970Z,7.22
2022-11-06T11:18:32.141Z,6.30
2022-11-06T11:21:06.256Z,7.95
2022-11-06T11:23:33.706Z,7.97
2022-11-06T11:26:15.310Z,9.15
2022-11-06T11:28:42.719Z,7.88
2022-11-06T11:31:11.749Z,6.90
2022-11-06T11:33:41.487Z,5.43
2022-11-06T11:36:10.670Z,6.15
2022-11-06T11:38:39.982Z,5.65
2022-11-06T11:41:08.806Z,7.40
2022-11-06T11:43:36.526Z,6.07
2022-11-06T11:46:05.296Z,4.95
2022-11-06T11:48:44.315Z,5.85
2022-11-06T11:51:26.618Z,9.55
2022-11-06T11:53:55.943Z,6.93
2022-11-06T11:56:49.666Z,6.40
2022-11-06T11:59:15.834Z,7.03
2022-11-06T12:01:43.416Z,6.53
2022-11-06T12:04:18.516Z,7.93
2022-11-06T12:06:57.666Z,6.57
2022-11-06T12:09:25.687Z,5.57
2022-11-06T12:11:53.654Z,5.18
2022-11-06T12:14:28.571Z,6.40
2022-11-06T12:16:58.277Z,5.47
2022-11-06T12:19:29.475Z,6.15
2022-11-06T12:21:58.415Z,5.80
2022-11-06T12:24:28.557Z,9.15
2022-11-06T12:26:56.669Z,5.45
2022-11-06T12:29:26.445Z,7.72
2022-11-06T12:31:56.262Z,5.05
2022-11-06T12:34:25.282Z,6.18
2022-11-06T12:37:03.550Z,6.07
2022-11-06T12:39:33.822Z,5.97
2022-11-06T12:42:03.277Z,7.88
2022-11-06T12:44:30.674Z,6.68
2022-11-06T12:47:01.583Z,5.00
2022-11-06T12:49:36.929Z,4.65
2022-11-06T12:52:13.921Z,4.63
2022-11-06T12:54:47.942Z,6.13
2022-11-06T12:57:21.522Z,5.65
2022-11-06T12:59:55.649Z,5.57
2022-11-06T13:02:33.271Z,5.88
2022-11-06T13:05:01.969Z,5.15
2022-11-06T13:07:46.605Z,4.13
2022-11-06T13:10:19.933Z,3.97
2022-11-06T13:12:53.453Z,4.82
2022-11-06T13:15:26.679Z,4.95
2022-11-06T13:17:55.976Z,7.07
2022-11-06T13:20:26.454Z,5.82
2022-11-06T13:25:27.009Z,7.30
2022-11-06T13:27:59.116Z,3.20
2022-11-06T13:30:27.760Z,4.88
2022-11-06T13:33:01.035Z,4.07
2022-11-06T13:35:28.617Z,5.05
2022-11-06T13:37:57.222Z,4.07
2022-11-06T13:40:28.729Z,7.30
2022-11-06T13:42:58.286Z,6.18
2022-11-06T13:45:26.452Z,3.83
2022-11-06T13:48:00.632Z,4.10
2022-11-06T13:50:30.727Z,3.50
2022-11-06T13:53:00.719Z,3.80
2022-11-06T13:55:36.682Z,4.72
2022-11-06T13:58:21.605Z,4.88
2022-11-06T14:00:56.242Z,4.57
2022-11-06T14:03:42.049Z,4.15
2022-11-06T14:06:11.467Z,6.13
2022-11-06T14:08:42.190Z,5.07
2022-11-06T14:11:14.740Z,5.13
2022-11-06T14:13:42.563Z,4.63
2022-11-06T14:16:26.318Z,4.85
2022-11-06T14:18:57.884Z,4.60
2022-11-06T14:21:52.144Z,4.15
2022-11-06T14:24:40.602Z,5.20
2022-11-06T14:27:12.782Z,3.50
2022-11-06T14:29:44.087Z,4.63
2022-11-06T14:32:12.623Z,5.82
2022-11-06T14:34:40.553Z,4.10
2022-11-06T14:37:31.150Z,3.97
2022-11-06T14:40:13.421Z,4.15
2022-11-06T14:42:43.390Z,4.97
2022-11-06T14:45:14.046Z,4.88
2022-11-06T14:47:42.932Z,3.92
2022-11-06T14:50:25.189Z,6.07
2022-11-06T14:52:55.549Z,8.30
2022-11-06T14:55:26.533Z,6.63
2022-11-06T14:57:55.601Z,5.28
2022-11-06T15:00:35.138Z,4.70
2022-11-06T15:03:02.902Z,3.78
2022-11-06T15:05:31.286Z,5.68
2022-11-06T15:08:15.463Z,4.13
2022-11-06T15:10:53.933Z,6.93
2022-11-06T15:13:27.361Z,7.53
2022-11-06T15:15:57.907Z,3.90
2022-11-06T15:18:26.613Z,5.13
2022-11-06T15:20:55.183Z,4.28
2022-11-06T15:23:24.670Z,5.40
2022-11-06T15:26:05.262Z,5.18
2022-11-06T15:28:42.516Z,6.07
2022-11-06T15:31:14.296Z,8.70
2022-11-06T15:33:54.467Z,6.05
2022-11-06T15:36:23.133Z,5.97
2022-11-06T15:38:50.881Z,7.90
2022-11-06T15:41:19.895Z,9.13
2022-11-06T15:43:49.797Z,7.82
2022-11-06T15:46:19.373Z,6.10
2022-11-06T15:48:47.109Z,6.60
2022-11-06T15:51:21.284Z,5.75
2022-11-06T15:53:48.637Z,6.28
2022-11-06T15:56:16.856Z,8.32
2022-11-06T15:58:44.273Z,26.05
2022-11-06T16:01:13.271Z,20.13
2022-11-06T16:03:49.314Z,18.05
2022-11-06T16:06:16.775Z,13.40
2022-11-06T16:08:44.592Z,12.15
2022-11-06T16:11:13.585Z,10.00
2022-11-06T16:13:41.748Z,11.98
2022-11-06T16:16:29.454Z,9.23
2022-11-06T16:18:58.236Z,7.32
2022-11-06T16:21:28.248Z,5.65
2022-11-06T16:23:57.091Z,6.95
2022-11-06T16:26:25.878Z,7.82
2022-11-06T16:28:54.759Z,7.55
2022-11-06T16:31:23.448Z,8.75
2022-11-06T16:33:58.815Z,8.10
2022-11-06T16:36:26.583Z,5.28
2022-11-06T16:38:54.354Z,7.28
2022-11-06T16:41:40.356Z,5.47
2022-11-06T16:44:23.560Z,5.85
2022-11-06T16:47:14.752Z,7.13
2022-11-06T16:49:47.627Z,7.40
2022-11-06T16:52:19.077Z,9.27
2022-11-06T16:54:47.443Z,8.23
2022-11-06T16:57:17.119Z,9.77
2022-11-06T16:59:44.812Z,8.57
2022-11-06T17:02:20.809Z,8.15
2022-11-06T17:04:49.771Z,10.88
2022-11-06T17:07:20.896Z,7.60
2022-11-06T17:09:48.306Z,9.00
2022-11-06T17:12:15.710Z,7.53
2022-11-06T17:14:46.844Z,8.52
2022-11-06T17:17:26.983Z,10.52
2022-11-06T17:19:55.664Z,8.88
2022-11-06T17:22:23.631Z,12.20
2022-11-06T17:24:50.996Z,7.03
2022-11-06T17:27:18.404Z,9.00
2022-11-06T17:29:45.812Z,8.52
2022-11-06T17:32:13.152Z,13.10
2022-11-06T17:34:40.534Z,9.35
2022-11-06T17:37:11.137Z,9.95
2022-11-06T17:39:38.512Z,8.82
2022-11-06T17:42:05.972Z,7.18
2022-11-06T17:44:33.382Z,11.32
2022-11-06T17:47:00.754Z,9.90
2022-11-06T17:49:28.178Z,8.93
2022-11-06T17:52:00.111Z,8.32
2022-11-06T17:54:30.350Z,10.43
2022-11-06T17:56:57.983Z,8.10
2022-11-06T17:59:26.040Z,11.85
2022-11-06T18:01:53.975Z,10.23
2022-11-06T18:04:22.549Z,10.52
2022-11-06T18:06:50.891Z,10.15
2022-11-06T18:09:18.700Z,8.15
2022-11-06T18:11:49.304Z,10.70
2022-11-06T18:14:16.932Z,8.23
2022-11-06T18:16:44.329Z,7.88
2022-11-06T18:19:12.729Z,8.43
2022-11-06T18:21:40.137Z,9.90
2022-11-06T18:24:08.243Z,9.05
2022-11-06T18:26:37.095Z,7.70
2022-11-06T18:29:06.097Z,9.00
2022-11-06T18:31:33.547Z,7.30
2022-11-06T18:34:00.993Z,8.75
2022-11-06T18:36:28.378Z,9.15
2022-11-06T18:38:55.785Z,9.05
2022-11-06T18:41:23.252Z,8.07
2022-11-06T18:43:50.669Z,11.90
2022-11-06T18:46:19.757Z,11.40
2022-11-06T18:48:47.176Z,12.23
2022-11-06T18:51:27.546Z,10.02
2022-11-06T18:54:01.710Z,11.13
2022-11-06T18:56:29.877Z,9.93
2022-11-06T18:58:57.551Z,11.38
2022-11-06T19:01:26.522Z,9.93
2022-11-06T19:03:54.009Z,12.70
2022-11-06T19:06:21.494Z,12.15
2022-11-06T19:08:49.175Z,12.73
2022-11-06T19:11:17.470Z,14.32
2022-11-06T19:13:48.028Z,12.52
2022-11-06T19:18:44.728Z,11.55
2022-11-06T19:21:13.328Z,10.55
2022-11-06T19:23:41.589Z,12.20
2022-11-06T19:26:30.179Z,13.43
2022-11-06T19:28:59.835Z,13.10
2022-11-06T19:31:29.210Z,11.35
2022-11-06T19:33:58.960Z,14.05
2022-11-06T19:36:26.667Z,12.13
2022-11-06T19:38:54.145Z,11.75
2022-11-06T19:41:21.615Z,11.80
2022-11-06T19:43:48.985Z,16.65
2022-11-06T19:46:23.463Z,11.75
2022-11-06T19:48:52.283Z,14.05
2022-11-06T19:51:21.043Z,12.85
2022-11-06T19:53:52.206Z,13.77
2022-11-06T19:56:19.641Z,12.23
2022-11-06T19:58:47.645Z,12.30
2022-11-06T20:01:15.349Z,14.32
2022-11-06T20:03:43.279Z,13.77
2022-11-06T20:06:11.122Z,11.25
2022-11-06T20:08:39.842Z,15.60
2022-11-06T20:11:07.967Z,13.02
2022-11-06T20:13:37.298Z,13.65
2022-11-06T20:16:04.699Z,15.52
2022-11-06T20:18:32.414Z,16.38
2022-11-06T20:21:00.414Z,16.05
2022-11-06T20:23:27.813Z,14.05
2022-11-06T20:25:56.545Z,14.30
2022-11-06T20:28:24.329Z,13.27
2022-11-06T20:30:51.713Z,15.05
2022-11-06T20:33:19.431Z,17.20
2022-11-06T20:35:46.974Z,15.35
2022-11-06T20:38:15.368Z,13.95
2022-11-06T20:40:42.972Z,16.35
2022-11-06T20:43:11.971Z,14.25
2022-11-06T20:45:39.849Z,14.95
2022-11-06T20:48:09.056Z,14.93
2022-11-06T20:50:36.525Z,16.05
2022-11-06T20:53:03.950Z,17.08
2022-11-06T20:55:31.344Z,16.30
2022-11-06T20:57:58.673Z,16.48
2022-11-06T21:00:27.368Z,14.68
2022-11-06T21:02:59.017Z,14.77
2022-11-06T21:05:28.986Z,16.60
2022-11-06T21:07:56.341Z,18.42
2022-11-06T21:10:23.692Z,15.90
2022-11-06T21:12:51.085Z,17.42
2022-11-06T21:15:18.614Z,17.23
2022-11-06T21:17:47.281Z,16.92
2022-11-06T21:20:16.975Z,17.45
2022-11-06T21:22:47.747Z,17.98
2022-11-06T21:25:15.113Z,17.63
2022-11-06T21:27:42.505Z,18.15
2022-11-06T21:30:10.602Z,16.40
2022-11-06T21:32:37.940Z,18.00
2022-11-06T21:35:07.425Z,19.13
2022-11-06T21:37:34.783Z,16.98
2022-11-06T21:40:02.199Z,18.15
2022-11-06T21:42:29.608Z,17.48
2022-11-06T21:44:57.013Z,18.77
2022-11-06T21:47:24.374Z,16.58
2022-11-06T21:49:54.775Z,20.17
2022-11-06T21:52:41.152Z,17.92
2022-11-06T21:55:26.471Z,17.27
2022-11-06T21:57:53.828Z,18.42
2022-11-06T22:00:21.778Z,16.48
2022-11-06T22:02:50.928Z,19.10
2022-11-06T22:05:18.829Z,17.85
2022-11-06T22:07:47.549Z,19.95
2022-11-06T22:10:14.976Z,19.48
2022-11-06T22:12:42.330Z,16.75
2022-11-06T22:15:10.114Z,17.20
2022-11-06T22:17:37.477Z,18.48
2022-11-06T22:20:05.200Z,18.45
2022-11-06T22:22:32.574Z,20.00
2022-11-06T22:25:01.321Z,18.88
2022-11-06T22:27:28.720Z,19.60
2022-11-06T22:29:56.085Z,18.23
2022-11-06T22:32:23.453Z,19.20
2022-11-06T22:34:50.850Z,17.08
2022-11-06T22:37:18.314Z,17.10
2022-11-06T22:39:48.267Z,17.35
2022-11-06T22:42:16.936Z,18.73
2022-11-06T22:44:44.417Z,18.75
2022-11-06T22:47:12.018Z,19.52
2022-11-06T22:49:39.408Z,16.67
2022-11-06T22:52:06.801Z,17.90
2022-11-06T22:54:34.175Z,17.02
2022-11-06T22:57:01.548Z,18.30
2022-11-06T22:59:30.259Z,17.42
2022-11-06T23:01:57.711Z,18.60
2022-11-06T23:04:25.181Z,15.93
2022-11-06T23:06:52.559Z,18.20
2022-11-06T23:09:19.878Z,18.08
2022-11-06T23:11:47.308Z,17.77
2022-11-06T23:14:14.714Z,16.48
2022-11-06T23:17:00.330Z,16.30
2022-11-06T23:19:28.941Z,19.15
2022-11-06T23:22:17.153Z,14.45
2022-11-06T23:24:44.584Z,15.95
2022-11-06T23:27:12.685Z,14.27
2022-11-06T23:29:40.421Z,18.60
2022-11-06T23:32:09.141Z,18.15
2022-11-06T23:34:36.528Z,18.08
2022-11-06T23:37:03.888Z,18.15
2022-11-06T23:39:31.208Z,15.65
2022-11-06T23:41:58.596Z,15.23
2022-11-06T23:44:43.329Z,17.20
2022-11-06T23:47:12.017Z,18.58
2022-11-06T23:49:39.392Z,15.57
2022-11-06T23:52:06.737Z,17.13
2022-11-06T23:54:34.079Z,16.13
2022-11-06T23:57:01.416Z,17.65
2022-11-06T23:59:28.750Z,16.60
